Huvudsida
METAR-TAF:

METAR-TAF

Flygplatser :

Shanghai Hongqiao International Airport

Shanghai-Hongqiao, Kina

latitud: 31-10N, longitud: 121-26E, höjd: 7 m

Aktuellt väderrapport

Denna rapport gjordes för 30 minuter sedan, klockan 00:30 UTC
Vind 12 kt från nord
Temperatur 22°C
Fuktighet 50%
Tryck 1015 hPa
Sikt 10 km eller mer
Inga moln under 1 500 m eller inga cumulonimbus

METAR: ZSSS 230030Z 35006MPS CAVOK 22/11 Q1015 NOSIG

Tid: 09:00 (01:00 UTC)

Väderprognos

Denna rapport gjordes för 5 timmar och 39 minuter sedan, klockan 19:21 UTC
Prognos gäller från 23 kl. 00 UTC till 23 kl. 24 UTC
Vind 8 kt från nord
Sikt: 6000 m
Spridda moln på en höjd av 2000 ft

TAF: ZSSS 221921Z 2300/2324 01004MPS 6000 SCT020 TX26/2306Z TN18/2321Z

Aktuella väderrapporter och prognoser från 4000 flygplatser (METAR- och TAF-rapporter).

De tillgängliga stationerna syns som gula och röda prickar på kartan.

För musen över prickarna för att se namnen på stationerna.

Klicka sedan för att få väderrapporter och prognoser.

För att ändra kartan: Klicka på de gröna knapparna med ett svart kors på för att zooma in; den gröna knappen med ett streck på för att zooma ut; eller på de gröna pilarna för angränsande kartor.


METAR-TAF: